Ramon Santamarina, Argentina
Current Conditions -  °F | °C
As of 5:00 PM on Sunday 23 Nov 2014 (Local Time) from SAZM Reporting Station
Broken Clouds Broken Clouds  
Wind Chill: 79°   Ceiling: 8000
Heat Index: 80°   Visibility: 6mi
Dew Point: 57°   Wind: 17mph
Humidity: 47%   Direction: 340°NNW
Pressure: 29.65"   Gusts: NA
Location:  38.46°S, 59.34°W
Report Text: SAZM 232000Z 34015KT 9999 FEW025TCU BKN080 26/14 Q1004
Loading
Personal Weather Stations






























Interactive Weather Map New forecast layout! Learn more

10-Day Weather Forecast

Advertisements
Track Severe Weather on mobile